Time;durP1;ratioP1;P1;durP2;ratioP2;P2;SDS_P1;SDS_P2;PMS_P1;PMS_P2;Temp;Humidity;BMP_temperature;BMP_pressure;BME280_temperature;BME280_humidity;BME280_pressure;Samples;Min_cycle;Max_cycle;Signal;HPM_P1;HPM_P2
2023/02/12 05:51:53;;;;;;;9.00;6.30;;;;;;;0.88;100.00;100442.23;107784;1278;22547;-41
2023/02/12 05:54:20;;;;;;;8.70;6.40;;;;;;;0.87;100.00;100445.46;109666;1260;25219;-42
2023/02/12 05:56:47;;;;;;;15.30;10.30;;;;;;;0.86;100.00;100453.80;109670;1260;22639;-48
2023/02/12 05:59:16;;;;;;;18.40;11.80;;;;;;;0.83;100.00;100459.72;109881;1260;25341;-47
2023/02/12 06:01:44;;;;;;;18.30;12.70;;;;;;;0.78;100.00;100462.63;109589;1260;24067;-47
2023/02/12 06:04:18;;;;;;;19.40;11.50;;;;;;;0.72;100.00;100471.13;109494;1260;22567;-42
2023/02/12 06:06:46;;;;;;;20.30;12.40;;;;;;;0.66;100.00;100480.98;109019;1260;22615;-41
2023/02/12 06:09:13;;;;;;;20.00;12.80;;;;;;;0.62;100.00;100491.08;110486;1260;25413;-49
2023/02/12 06:11:40;;;;;;;18.30;12.10;;;;;;;0.57;100.00;100498.95;110520;1260;22539;-42
2023/02/12 06:14:08;;;;;;;26.60;15.40;;;;;;;0.54;100.00;100501.58;109248;1260;22599;-41
2023/02/12 06:16:36;;;;;;;24.30;12.30;;;;;;;0.53;100.00;100516.31;109471;1260;22520;-42
2023/02/12 06:19:04;;;;;;;23.30;14.90;;;;;;;0.53;100.00;100519.60;109348;1260;25313;-49
2023/02/12 06:21:31;;;;;;;22.30;12.80;;;;;;;0.55;100.00;100528.23;109942;1260;24191;-41
2023/02/12 06:23:58;;;;;;;18.90;11.20;;;;;;;0.57;100.00;100534.13;109246;1260;22543;-48
2023/02/12 06:26:25;;;;;;;19.90;10.30;;;;;;;0.58;100.00;100536.23;109872;1260;22506;-49
2023/02/12 06:28:52;;;;;;;16.10;9.80;;;;;;;0.58;100.00;100532.45;110481;1260;23855;-48
2023/02/12 06:31:30;;;;;;;12.70;8.60;;;;;;;0.58;100.00;100538.30;110795;1260;24752;-49
2023/02/12 06:33:59;;;;;;;11.40;6.80;;;;;;;0.57;100.00;100538.58;109961;1260;25348;-49
2023/02/12 06:36:26;;;;;;;10.30;7.30;;;;;;;0.55;100.00;100543.85;111282;1260;23214;-48
2023/02/12 06:38:53;;;;;;;11.60;6.80;;;;;;;0.54;100.00;100542.44;110582;1260;22523;-48
2023/02/12 06:41:20;;;;;;;11.30;6.30;;;;;;;0.54;100.00;100551.70;109863;1260;26587;-49
2023/02/12 06:43:48;;;;;;;4.90;3.40;;;;;;;0.52;99.71;100557.98;110098;1260;25505;-49
2023/02/12 06:46:15;;;;;;;5.00;2.20;;;;;;;0.47;96.58;100559.47;110567;1260;22528;-49
2023/02/12 06:48:42;;;;;;;7.30;2.40;;;;;;;0.42;94.41;100564.91;109186;1260;25339;-49
2023/02/12 06:51:11;;;;;;;1.60;1.10;;;;;;;0.36;89.68;100572.33;109498;1260;23870;-50
2023/02/12 06:53:38;;;;;;;1.10;0.70;;;;;;;0.28;85.80;100575.77;110194;1260;22964;-49
2023/02/12 06:56:10;;;;;;;1.30;0.70;;;;;;;0.20;84.64;100587.41;110060;1260;24260;-48
2023/02/12 06:58:38;;;;;;;2.10;0.80;;;;;;;0.14;84.42;100584.56;109919;1260;24383;-49
2023/02/12 07:01:12;;;;;;;2.80;0.90;;;;;;;0.09;83.84;100585.34;110283;1260;22507;-49
2023/02/12 07:03:40;;;;;;;2.20;0.80;;;;;;;0.06;83.22;100589.15;110888;1244;25245;-48
2023/02/12 07:06:08;;;;;;;0.80;0.60;;;;;;;0.04;82.10;100590.95;110708;1260;25387;-48
2023/02/12 07:08:36;;;;;;;1.70;0.80;;;;;;;0.03;81.74;100596.89;110103;1260;23162;-49
2023/02/12 07:11:03;;;;;;;1.10;0.60;;;;;;;0.03;82.19;100604.09;110311;1252;25495;-48
2023/02/12 07:13:33;;;;;;;1.00;0.60;;;;;;;0.04;82.20;100603.79;110256;1252;25402;-49
2023/02/12 07:16:04;;;;;;;3.70;0.90;;;;;;;0.05;82.51;100604.52;110431;1252;24182;-48
2023/02/12 07:18:35;;;;;;;4.20;1.50;;;;;;;0.07;82.35;100611.33;110408;1252;23441;-49
2023/02/12 07:21:02;;;;;;;4.10;2.10;;;;;;;0.07;81.48;100615.81;110230;1252;22538;-49
2023/02/12 07:23:30;;;;;;;2.70;1.50;;;;;;;0.07;81.81;100622.65;110603;1252;22198;-50
2023/02/12 07:25:58;;;;;;;3.70;1.70;;;;;;;0.07;82.01;100623.17;111930;1252;22852;-48
2023/02/12 07:28:26;;;;;;;2.10;1.50;;;;;;;0.07;81.96;100628.50;110773;1252;22604;-49
2023/02/12 07:30:53;;;;;;;2.60;1.60;;;;;;;0.08;81.50;100635.20;111071;1252;22260;-48
2023/02/12 07:33:20;;;;;;;3.60;1.50;;;;;;;0.07;81.73;100636.56;111823;1252;23713;-47
2023/02/12 07:35:46;;;;;;;2.70;1.30;;;;;;;0.09;82.11;100638.20;111581;1252;25544;-49
2023/02/12 07:38:13;;;;;;;2.30;1.70;;;;;;;0.11;81.63;100644.27;110799;1252;24354;-49
2023/02/12 07:40:40;;;;;;;4.00;1.90;;;;;;;0.11;82.23;100649.94;111955;1252;22588;-48
2023/02/12 07:43:07;;;;;;;4.50;2.10;;;;;;;0.09;82.72;100659.46;111238;1252;23289;-47
2023/02/12 07:45:35;;;;;;;4.30;1.80;;;;;;;0.06;82.40;100661.70;111438;1243;25384;-48
2023/02/12 07:48:02;;;;;;;8.30;2.80;;;;;;;-0.01;80.82;100667.41;111961;1252;22447;-47
2023/02/12 07:50:29;;;;;;;7.90;2.90;;;;;;;-0.09;80.30;100673.52;111369;1252;22996;-48
2023/02/12 07:52:56;;;;;;;7.50;3.40;;;;;;;-0.14;80.58;100685.60;111578;1252;22443;-48
2023/02/12 07:55:25;;;;;;;4.30;2.70;;;;;;;-0.17;80.63;100685.80;112679;1252;22402;-48
2023/02/12 07:57:51;;;;;;;3.30;1.50;;;;;;;-0.16;80.87;100688.27;112366;1252;22485;-48
2023/02/12 08:00:18;;;;;;;6.00;1.70;;;;;;;-0.12;79.64;100701.33;112702;1252;22377;-48
2023/02/12 08:02:52;;;;;;;5.20;2.10;;;;;;;-0.10;78.09;100700.06;112712;1252;22358;-49
2023/02/12 08:05:19;;;;;;;4.00;1.50;;;;;;;-0.10;77.29;100710.33;112742;1252;23829;-49
2023/02/12 08:07:46;;;;;;;3.60;2.20;;;;;;;-0.11;76.66;100712.68;112556;1252;22520;-41
2023/02/12 08:10:13;;;;;;;5.60;3.20;;;;;;;-0.14;75.63;100717.68;110837;1252;25314;-42
2023/02/12 08:12:39;;;;;;;4.90;3.30;;;;;;;-0.17;74.84;100728.00;111002;1252;24368;-40
2023/02/12 08:15:07;;;;;;;8.90;3.90;;;;;;;-0.19;74.88;100735.24;110091;1252;23321;-41
2023/02/12 08:17:35;;;;;;;5.70;3.60;;;;;;;-0.19;75.99;100746.40;110483;1252;22860;-41
2023/02/12 08:20:01;;;;;;;8.80;2.90;;;;;;;-0.18;75.66;100749.05;110273;1252;22519;-40
2023/02/12 08:22:28;;;;;;;6.80;2.70;;;;;;;-0.17;74.66;100752.17;110686;1252;25304;-41
2023/02/12 08:24:55;;;;;;;6.50;3.80;;;;;;;-0.16;74.42;100763.70;110469;1252;23636;-41
2023/02/12 08:27:22;;;;;;;6.40;3.40;;;;;;;-0.16;74.88;100771.61;111385;1248;25347;-41
2023/02/12 08:29:49;;;;;;;5.00;2.40;;;;;;;-0.14;74.50;100779.05;110619;1248;25311;-40
2023/02/12 08:32:16;;;;;;;3.00;1.50;;;;;;;-0.15;74.21;100780.90;110760;1249;25471;-41
2023/02/12 08:34:42;;;;;;;3.70;1.50;;;;;;;-0.16;73.73;100789.98;110485;1249;23165;-40
2023/02/12 08:37:09;;;;;;;3.30;1.60;;;;;;;-0.16;73.73;100799.70;110545;1249;23219;-41
2023/02/12 08:39:37;;;;;;;3.80;1.30;;;;;;;-0.18;74.25;100802.88;110093;1249;22517;-40
2023/02/12 08:42:04;;;;;;;4.70;1.20;;;;;;;-0.15;74.79;100806.63;110527;1249;23144;-40
2023/02/12 08:44:31;;;;;;;3.10;0.90;;;;;;;-0.12;73.22;100813.79;110862;1249;22496;-41
2023/02/12 08:47:01;;;;;;;2.60;0.80;;;;;;;-0.16;71.53;100818.94;110430;1249;22593;-40
2023/02/12 08:49:28;;;;;;;1.80;0.60;;;;;;;-0.21;71.21;100827.23;110412;1249;25749;-41
2023/02/12 08:51:56;;;;;;;1.50;0.70;;;;;;;-0.25;70.38;100829.76;110616;1249;22504;-47
2023/02/12 08:54:28;;;;;;;2.70;1.00;;;;;;;-0.28;70.68;100839.23;110105;1249;25387;-41
2023/02/12 08:57:01;;;;;;;0.60;0.50;;;;;;;-0.28;69.92;100840.42;111368;1249;22685;-39
2023/02/12 08:59:28;;;;;;;2.30;1.20;;;;;;;-0.31;68.35;100838.18;110790;1249;24458;-40
2023/02/12 09:01:59;;;;;;;4.30;0.50;;;;;;;-0.35;68.16;100840.92;110400;1249;22577;-40
2023/02/12 09:04:27;;;;;;;1.10;0.50;;;;;;;-0.37;67.97;100850.26;111789;1249;22435;-38
2023/02/12 09:06:54;;;;;;;1.70;0.50;;;;;;;-0.37;67.28;100854.16;110884;1249;24221;-39
2023/02/12 09:09:23;;;;;;;1.70;0.90;;;;;;;-0.31;67.64;100853.79;110633;1249;23897;-40
2023/02/12 09:11:54;;;;;;;4.80;1.20;;;;;;;-0.17;68.28;100859.00;110325;1249;22524;-40
2023/02/12 09:14:22;;;;;;;2.50;1.40;;;;;;;-0.07;68.31;100867.39;110291;1249;25309;-40
2023/02/12 09:16:51;;;;;;;5.10;3.00;;;;;;;-0.08;68.02;100867.88;111625;1249;23257;-39
2023/02/12 09:19:18;;;;;;;7.40;3.40;;;;;;;-0.13;67.70;100873.77;111793;1249;22543;-39
2023/02/12 09:21:45;;;;;;;16.60;9.30;;;;;;;-0.19;67.93;100875.88;110924;1249;23315;-40
2023/02/12 09:24:11;;;;;;;20.30;11.30;;;;;;;-0.23;68.40;100884.04;110800;1243;22564;-40
2023/02/12 09:26:39;;;;;;;20.90;12.70;;;;;;;-0.24;69.16;100884.48;110552;1249;23172;-38
2023/02/12 09:29:06;;;;;;;19.80;12.80;;;;;;;-0.22;69.34;100891.81;110124;1249;23220;-40
2023/02/12 09:31:34;;;;;;;20.10;12.30;;;;;;;-0.17;69.74;100893.95;110345;1249;22616;-40
2023/02/12 09:34:05;;;;;;;18.20;10.30;;;;;;;-0.12;68.19;100899.03;110474;1249;26462;-39
2023/02/12 09:36:32;;;;;;;17.50;9.40;;;;;;;-0.10;67.61;100899.84;110640;1248;22497;-40
2023/02/12 09:38:59;;;;;;;14.20;8.90;;;;;;;-0.06;67.94;100900.73;111320;1249;23747;-41
2023/02/12 09:41:46;;;;;;;20.00;11.80;;;;;;;-0.04;66.35;100908.38;111273;1248;22573;-42
2023/02/12 09:44:22;;;;;;;20.20;11.00;;;;;;;-0.09;66.06;100912.92;111066;1249;24440;-39
2023/02/12 09:47:30;;;;;;;12.40;7.40;;;;;;;-0.19;66.94;100918.39;111340;1248;22616;-40
2023/02/12 09:50:16;;;;;;;12.10;6.80;;;;;;;-0.30;64.96;100918.66;110333;1257;22507;-40
2023/02/12 09:52:43;;;;;;;20.80;10.80;;;;;;;-0.40;63.74;100924.33;109968;1257;25304;-41
2023/02/12 09:55:13;;;;;;;10.70;7.30;;;;;;;-0.47;63.17;100936.78;110849;1257;25510;-41
2023/02/12 09:57:40;;;;;;;7.90;4.80;;;;;;;-0.41;64.16;100937.98;110580;1257;22503;-41
2023/02/12 10:00:09;;;;;;;3.50;2.60;;;;;;;-0.24;64.10;100942.96;109912;1256;23253;-40
2023/02/12 10:02:38;;;;;;;6.00;3.60;;;;;;;-0.16;62.65;100952.15;110817;1257;22485;-39
2023/02/12 10:05:17;;;;;;;11.20;6.80;;;;;;;-0.17;61.95;100953.80;109642;1256;25353;-40
2023/02/12 10:08:09;;;;;;;11.50;8.00;;;;;;;-0.17;61.47;100956.05;110842;1257;22619;-41
2023/02/12 10:11:27;;;;;;;11.60;8.20;;;;;;;-0.16;60.97;100954.04;110347;1256;22509;-39
2023/02/12 10:14:22;;;;;;;14.00;9.40;;;;;;;-0.14;61.68;100952.26;109083;1264;25342;-38
2023/02/12 10:17:09;;;;;;;12.00;8.30;;;;;;;-0.10;61.37;100949.02;111376;1264;23070;-40
2023/02/12 10:20:01;;;;;;;10.30;6.70;;;;;;;0.02;62.53;100949.53;110337;1264;24269;-38
2023/02/12 10:22:36;;;;;;;8.40;6.00;;;;;;;0.16;61.88;100944.75;110400;1257;24379;-42
2023/02/12 10:25:30;;;;;;;7.50;5.00;;;;;;;0.22;62.02;100941.09;110838;1257;22500;-39
2023/02/12 10:28:00;;;;;;;5.80;3.60;;;;;;;0.19;61.74;100942.88;110203;1257;22519;-40
2023/02/12 10:30:36;;;;;;;5.00;3.20;;;;;;;0.15;61.83;100942.15;110518;1257;22623;-39
2023/02/12 10:33:08;;;;;;;3.10;2.00;;;;;;;0.25;61.78;100939.37;109521;1257;22651;-40
2023/02/12 10:35:35;;;;;;;5.80;1.80;;;;;;;0.55;60.62;100934.91;109324;1257;25467;-40
2023/02/12 10:38:06;;;;;;;4.50;1.90;;;;;;;0.89;60.49;100943.47;109289;1257;22520;-40
2023/02/12 10:40:34;;;;;;;1.90;1.50;;;;;;;1.14;59.54;100938.66;109573;1257;23229;-38
2023/02/12 10:43:01;;;;;;;2.60;1.20;;;;;;;1.14;58.80;100936.77;109404;1257;25332;-38
2023/02/12 10:45:29;;;;;;;2.50;1.40;;;;;;;1.10;59.00;100940.02;109694;1257;22754;-40
2023/02/12 10:48:03;;;;;;;2.10;1.20;;;;;;;1.04;59.39;100940.41;110386;1257;25315;-40
2023/02/12 10:50:43;;;;;;;1.60;1.00;;;;;;;1.11;59.33;100940.08;110004;1249;25342;-40
2023/02/12 10:53:15;;;;;;;4.10;1.20;;;;;;;1.25;58.53;100944.68;110564;1249;22630;-40
2023/02/12 10:55:42;;;;;;;;;;;;;;;1.57;58.58;100946.90;110913;1249;22588;-42
2023/02/12 10:58:20;;;;;;;5.00;1.20;;;;;;;2.01;57.92;100942.52;110977;1249;23455;-39
2023/02/12 11:00:55;;;;;;;3.00;1.30;;;;;;;2.28;57.64;100940.78;111656;1249;23871;-40
2023/02/12 11:03:22;;;;;;;1.80;1.10;;;;;;;2.35;57.09;100934.56;111282;1249;22621;-41
2023/02/12 11:05:49;;;;;;;4.10;1.20;;;;;;;2.30;57.14;100934.67;111181;1249;22532;-40
2023/02/12 11:08:36;;;;;;;4.60;1.40;;;;;;;2.16;56.89;100931.33;110312;1249;25359;-39
2023/02/12 11:11:09;;;;;;;4.00;1.50;;;;;;;1.91;57.67;100934.35;110558;1249;25312;-40
2023/02/12 11:13:39;;;;;;;2.50;1.30;;;;;;;1.72;57.74;100930.38;111250;1248;22555;-38
2023/02/12 11:16:06;;;;;;;3.50;1.60;;;;;;;1.53;57.99;100937.77;112874;1249;23262;-40
2023/02/12 11:18:35;;;;;;;1.80;1.40;;;;;;;1.38;57.17;100941.68;112951;1249;22420;-39
2023/02/12 11:21:06;;;;;;;1.90;1.40;;;;;;;1.32;57.07;100941.40;112694;1248;22469;-39
2023/02/12 11:23:37;;;;;;;2.80;1.90;;;;;;;1.54;56.46;100937.27;112832;1249;22385;-39
2023/02/12 11:26:16;;;;;;;7.70;2.70;;;;;;;1.94;55.86;100938.60;112888;1249;23321;-39
2023/02/12 11:28:55;;;;;;;4.00;2.80;;;;;;;2.44;55.32;100928.58;112990;1249;23148;-39
2023/02/12 11:31:33;;;;;;;5.20;1.60;;;;;;;3.09;54.20;100938.35;112144;1249;22543;-40
2023/02/12 11:34:03;;;;;;;5.70;2.30;;;;;;;3.48;52.72;100937.46;111115;1249;24026;-39
2023/02/12 11:36:35;;;;;;;3.40;1.60;;;;;;;3.50;52.79;100941.15;110495;1249;25385;-41
2023/02/12 11:39:02;;;;;;;2.60;1.50;;;;;;;3.02;52.18;100949.59;109901;1249;24215;-38
2023/02/12 11:41:35;;;;;;;3.70;1.40;;;;;;;2.40;52.61;100955.46;110338;1249;24399;-41
2023/02/12 11:44:12;;;;;;;;;;;;;;;2.21;52.43;100950.50;110321;1249;22735;-39
2023/02/12 11:46:39;;;;;;;6.30;1.90;;;;;;;2.34;52.41;100947.59;109974;1249;25311;-39
2023/02/12 11:49:08;;;;;;;5.20;1.90;;;;;;;2.54;51.29;100948.14;109980;1249;22493;-38
2023/02/12 11:51:36;;;;;;;6.40;3.20;;;;;;;2.38;50.76;100953.11;110548;1249;22504;-44
2023/02/12 11:54:18;;;;;;;1.20;0.80;;;;;;;2.00;51.20;100953.68;110671;1248;24015;-39
2023/02/12 11:56:45;;;;;;;2.40;1.10;;;;;;;1.85;52.06;100954.69;110846;1249;27872;-39
2023/02/12 11:59:34;;;;;;;4.20;2.00;;;;;;;2.03;52.45;100947.80;110637;1249;25337;-39
2023/02/12 12:02:10;;;;;;;1.90;1.30;;;;;;;2.45;51.88;100945.50;110328;1249;23252;-40
2023/02/12 12:04:37;;;;;;;6.60;2.30;;;;;;;2.82;51.50;100936.89;110596;1249;23189;-40
2023/02/12 12:07:25;;;;;;;2.80;1.20;;;;;;;3.12;51.21;100946.06;110385;1249;25510;-38
2023/02/12 12:09:58;;;;;;;2.90;1.30;;;;;;;2.94;50.57;100946.53;110769;1249;25336;-40
2023/02/12 12:12:37;;;;;;;2.70;1.30;;;;;;;2.42;51.68;100949.32;110238;1249;25458;-39
2023/02/12 12:21:38;;;;;;;2.20;1.40;;;;;;;2.04;54.08;100952.30;110846;1249;25466;-38
2023/02/12 12:24:16;;;;;;;4.90;1.20;;;;;;;2.12;53.72;100955.56;110017;1249;22515;-39
2023/02/12 12:26:48;;;;;;;5.70;3.00;;;;;;;2.04;53.37;100959.01;110990;1249;25461;-40
2023/02/12 12:29:19;;;;;;;2.50;1.90;;;;;;;2.10;53.38;100967.17;110895;1248;22633;-40
2023/02/12 12:31:48;;;;;;;6.40;2.30;;;;;;;2.26;53.18;100967.23;110095;1249;24351;-39
2023/02/12 12:34:21;;;;;;;2.90;1.80;;;;;;;2.45;53.29;100963.39;110212;1249;25469;-40
2023/02/12 12:37:01;;;;;;;8.50;3.40;;;;;;;2.53;52.86;100960.48;110908;1249;25451;-40
2023/02/12 12:39:37;;;;;;;8.50;3.60;;;;;;;2.40;53.63;100956.98;110091;1248;25381;-41
2023/02/12 12:42:11;;;;;;;2.00;1.30;;;;;;;2.25;53.15;100959.60;110485;1249;22518;-39
2023/02/12 12:45:10;;;;;;;2.20;1.10;;;;;;;2.24;52.69;100958.52;110528;1249;22502;-40
2023/02/12 12:47:57;;;;;;;4.20;1.20;;;;;;;2.13;52.48;100966.30;110580;1249;23656;-39
2023/02/12 12:50:27;;;;;;;7.00;1.50;;;;;;;1.89;53.49;100958.32;111047;1241;23323;-39
2023/02/12 12:53:21;;;;;;;4.20;1.50;;;;;;;1.78;53.87;100964.02;111203;1249;22508;-39
2023/02/12 12:55:51;;;;;;;2.60;1.30;;;;;;;1.84;53.95;100964.13;111139;1249;25461;-39
2023/02/12 12:58:56;;;;;;;3.00;2.10;;;;;;;1.92;53.26;100970.70;110358;1249;25326;-38
2023/02/12 13:01:42;;;;;;;3.60;1.40;;;;;;;2.12;52.89;100972.11;110931;1249;25456;-40
2023/02/12 13:04:15;;;;;;;4.60;1.80;;;;;;;2.41;52.85;100966.33;110699;1249;25392;-39
2023/02/12 13:06:53;;;;;;;4.70;2.40;;;;;;;2.77;51.86;100974.77;111113;1249;22506;-40
2023/02/12 13:09:39;;;;;;;4.20;1.80;;;;;;;3.20;50.84;100976.17;109838;1249;22569;-40
2023/02/12 13:12:15;;;;;;;2.60;0.80;;;;;;;3.53;50.13;100979.08;110345;1249;22514;-40
